createdAt,value
2023-04-19T00:02:08.868Z,14.30
2023-04-19T00:04:38.283Z,14.30
2023-04-19T00:07:05.255Z,14.20
2023-04-19T00:09:36.610Z,14.20
2023-04-19T00:12:08.871Z,14.20
2023-04-19T00:14:37.820Z,14.20
2023-04-19T00:17:04.789Z,14.20
2023-04-19T00:19:31.709Z,14.20
2023-04-19T00:22:02.963Z,14.20
2023-04-19T00:24:35.039Z,14.10
2023-04-19T00:27:06.796Z,14.10
2023-04-19T00:29:33.682Z,14.20
2023-04-19T00:32:06.013Z,14.20
2023-04-19T00:34:33.160Z,14.20
2023-04-19T00:37:05.576Z,14.20
2023-04-19T00:39:35.662Z,14.20
2023-04-19T00:42:07.380Z,14.20
2023-04-19T00:44:36.513Z,14.20
2023-04-19T00:47:05.991Z,14.20
2023-04-19T00:49:33.044Z,14.20
2023-04-19T00:51:59.908Z,14.20
2023-04-19T00:54:30.152Z,14.20
2023-04-19T00:56:57.202Z,14.20
2023-04-19T00:59:25.131Z,14.20
2023-04-19T01:01:54.549Z,14.20
2023-04-19T01:04:26.871Z,14.20
2023-04-19T01:06:56.314Z,14.20
2023-04-19T01:09:27.923Z,14.20
2023-04-19T01:11:59.637Z,14.10
2023-04-19T01:14:28.741Z,14.10
2023-04-19T01:16:57.207Z,14.10
2023-04-19T01:19:26.740Z,14.10
2023-04-19T01:21:53.533Z,14.10
2023-04-19T01:24:20.492Z,14.00
2023-04-19T01:26:52.448Z,14.00
2023-04-19T01:29:24.137Z,14.10
2023-04-19T01:31:53.447Z,14.00
2023-04-19T01:34:23.219Z,14.00
2023-04-19T01:36:50.539Z,14.00
2023-04-19T01:39:20.123Z,14.00
2023-04-19T01:41:46.953Z,14.00
2023-04-19T01:44:20.841Z,14.00
2023-04-19T01:46:47.779Z,14.00
2023-04-19T01:49:16.878Z,14.00
2023-04-19T01:51:46.434Z,14.00
2023-04-19T01:54:15.779Z,14.00
2023-04-19T01:56:42.939Z,14.00
2023-04-19T01:59:10.075Z,14.00
2023-04-19T02:01:39.412Z,14.00
2023-04-19T02:04:09.936Z,14.00
2023-04-19T02:06:39.784Z,14.00
2023-04-19T02:09:11.360Z,14.00
2023-04-19T02:11:40.982Z,14.00
2023-04-19T02:14:07.728Z,14.00
2023-04-19T02:16:39.092Z,13.90
2023-04-19T02:19:11.510Z,14.00
2023-04-19T02:21:38.956Z,14.00
2023-04-19T02:24:06.260Z,13.90
2023-04-19T02:26:33.166Z,13.90
2023-04-19T02:29:00.442Z,13.90
2023-04-19T02:31:27.478Z,13.90
2023-04-19T02:33:56.566Z,13.90
2023-04-19T02:36:26.297Z,13.90
2023-04-19T02:38:53.143Z,13.90
2023-04-19T02:41:22.647Z,13.80
2023-04-19T02:43:54.115Z,13.80
2023-04-19T02:46:23.805Z,13.80
2023-04-19T02:48:50.594Z,13.80
2023-04-19T02:51:19.875Z,13.80
2023-04-19T02:53:49.249Z,13.70
2023-04-19T02:56:18.759Z,13.70
2023-04-19T02:58:50.421Z,13.70
2023-04-19T03:01:17.277Z,13.60
2023-04-19T03:03:46.472Z,13.60
2023-04-19T03:06:16.818Z,13.60
2023-04-19T03:08:49.044Z,13.50
2023-04-19T03:11:25.143Z,13.50
2023-04-19T03:14:00.783Z,13.50
2023-04-19T03:16:27.833Z,13.50
2023-04-19T03:18:57.181Z,13.40
2023-04-19T03:21:31.931Z,13.40
2023-04-19T03:24:01.828Z,13.40
2023-04-19T03:26:28.961Z,13.40
2023-04-19T03:28:57.429Z,13.40
2023-04-19T03:31:37.267Z,13.40
2023-04-19T03:34:06.876Z,13.40
2023-04-19T03:36:40.578Z,13.40
2023-04-19T03:39:10.772Z,13.40
2023-04-19T03:41:42.703Z,13.40
2023-04-19T03:44:20.170Z,13.40
2023-04-19T03:46:51.612Z,13.50
2023-04-19T03:49:24.862Z,13.50
2023-04-19T03:52:03.326Z,13.50
2023-04-19T03:54:32.673Z,13.40
2023-04-19T03:57:00.475Z,13.50
2023-04-19T03:59:28.097Z,13.50
2023-04-19T04:02:00.617Z,13.50
2023-04-19T04:04:32.208Z,13.50
2023-04-19T04:07:00.437Z,13.40
2023-04-19T04:09:31.631Z,13.50
2023-04-19T04:12:04.116Z,13.50
2023-04-19T04:14:31.521Z,13.50
2023-04-19T04:16:59.179Z,13.50
2023-04-19T04:19:26.108Z,13.50
2023-04-19T04:21:55.390Z,13.50
2023-04-19T04:24:24.372Z,13.50
2023-04-19T04:27:13.419Z,13.50
2023-04-19T04:29:46.832Z,13.50
2023-04-19T04:32:14.551Z,13.50
2023-04-19T04:34:47.137Z,13.50
2023-04-19T04:37:27.751Z,13.50
2023-04-19T04:39:59.186Z,13.50
2023-04-19T04:42:31.346Z,13.50
2023-04-19T04:45:01.566Z,13.50
2023-04-19T04:47:34.296Z,13.60
2023-04-19T04:50:07.882Z,13.60
2023-04-19T04:52:37.348Z,13.60
2023-04-19T04:55:11.582Z,13.60
2023-04-19T04:57:45.778Z,13.60
2023-04-19T05:00:18.784Z,13.60
2023-04-19T05:02:57.189Z,13.60
2023-04-19T05:05:26.658Z,13.60
2023-04-19T05:07:55.792Z,13.60
2023-04-19T05:10:24.978Z,13.60
2023-04-19T05:12:57.608Z,13.60
2023-04-19T05:15:29.384Z,13.60
2023-04-19T05:18:00.976Z,13.60
2023-04-19T05:20:31.722Z,13.60
2023-04-19T05:23:05.837Z,13.60
2023-04-19T05:25:34.685Z,13.60
2023-04-19T05:28:03.402Z,13.60
2023-04-19T05:30:37.433Z,13.60
2023-04-19T05:33:05.415Z,13.70
2023-04-19T05:35:32.606Z,13.60
2023-04-19T05:38:02.017Z,13.70
2023-04-19T05:40:31.104Z,13.70
2023-04-19T05:42:58.783Z,13.70
2023-04-19T05:45:28.524Z,13.70
2023-04-19T05:47:55.469Z,13.70
2023-04-19T05:50:25.282Z,13.70
2023-04-19T05:53:20.039Z,13.80
2023-04-19T05:55:56.174Z,13.80
2023-04-19T05:58:23.633Z,13.80
2023-04-19T06:00:52.356Z,13.80
2023-04-19T06:03:21.646Z,13.80
2023-04-19T06:05:49.516Z,13.80
2023-04-19T06:08:18.798Z,13.80
2023-04-19T06:10:54.577Z,13.90
2023-04-19T06:13:26.201Z,13.90
2023-04-19T06:15:55.484Z,13.90
2023-04-19T06:18:27.378Z,13.90
2023-04-19T06:20:56.841Z,13.90
2023-04-19T06:23:23.717Z,14.00
2023-04-19T06:25:52.695Z,14.00
2023-04-19T06:28:21.657Z,14.00
2023-04-19T06:30:50.994Z,14.00
2023-04-19T06:33:19.872Z,14.00
2023-04-19T06:35:49.124Z,14.00
2023-04-19T06:38:16.363Z,14.00
2023-04-19T06:40:45.219Z,14.10
2023-04-19T06:43:12.094Z,14.00
2023-04-19T06:45:43.556Z,14.10
2023-04-19T06:48:10.404Z,14.00
2023-04-19T06:50:37.439Z,14.00
2023-04-19T06:53:05.075Z,14.00
2023-04-19T06:55:39.596Z,14.00
2023-04-19T06:58:10.617Z,14.10
2023-04-19T07:00:40.339Z,14.10
2023-04-19T07:03:07.381Z,14.10
2023-04-19T07:05:38.369Z,14.10
2023-04-19T07:08:07.779Z,14.10
2023-04-19T07:10:39.403Z,14.10
2023-04-19T07:13:06.300Z,14.10
2023-04-19T07:15:33.170Z,14.10
2023-04-19T07:18:07.396Z,14.10
2023-04-19T07:20:44.552Z,14.10
2023-04-19T07:23:11.795Z,14.10
2023-04-19T07:25:43.320Z,14.10
2023-04-19T07:28:15.969Z,14.10
2023-04-19T07:30:45.990Z,14.10
2023-04-19T07:33:15.834Z,14.10
2023-04-19T07:35:45.267Z,14.20
2023-04-19T07:38:14.310Z,14.20
2023-04-19T07:40:45.870Z,14.20
2023-04-19T07:43:12.915Z,14.30
2023-04-19T07:45:46.686Z,14.30
2023-04-19T07:48:15.678Z,14.30
2023-04-19T07:50:42.505Z,14.30
2023-04-19T07:53:11.547Z,14.40
2023-04-19T07:55:42.983Z,14.50
2023-04-19T07:58:14.868Z,14.50
2023-04-19T08:00:41.801Z,14.60
2023-04-19T08:03:15.966Z,14.60
2023-04-19T08:05:45.399Z,14.60
2023-04-19T08:08:12.500Z,14.70
2023-04-19T08:10:43.700Z,14.70
2023-04-19T08:13:13.088Z,14.70
2023-04-19T08:18:12.166Z,14.80
2023-04-19T08:20:42.688Z,14.80
2023-04-19T08:23:21.589Z,14.90
2023-04-19T08:25:55.763Z,14.90
2023-04-19T08:28:28.444Z,15.00
2023-04-19T08:30:58.913Z,15.00
2023-04-19T08:33:30.921Z,15.10
2023-04-19T08:36:02.423Z,15.10
2023-04-19T08:38:29.284Z,15.20
2023-04-19T08:41:00.981Z,15.20
2023-04-19T08:43:37.747Z,15.30
2023-04-19T08:46:12.973Z,15.30
2023-04-19T08:48:41.407Z,15.40
2023-04-19T08:51:09.859Z,15.40
2023-04-19T08:53:41.123Z,15.50
2023-04-19T08:56:17.966Z,15.50
2023-04-19T08:59:11.054Z,15.60
2023-04-19T09:01:45.813Z,15.60
2023-04-19T09:06:42.673Z,15.70
2023-04-19T09:11:59.946Z,15.90
2023-04-19T09:14:31.124Z,16.00
2023-04-19T09:17:17.098Z,16.00
2023-04-19T09:19:49.942Z,16.10
2023-04-19T09:22:19.803Z,16.10
2023-04-19T09:25:22.565Z,16.20
2023-04-19T09:27:37.048Z,16.30
2023-04-19T09:30:06.207Z,16.30
2023-04-19T09:32:49.427Z,16.40
2023-04-19T09:35:19.036Z,16.40
2023-04-19T09:40:32.887Z,16.60
2023-04-19T09:43:12.900Z,16.70
2023-04-19T09:45:47.281Z,16.70
2023-04-19T09:48:16.396Z,16.80
2023-04-19T09:51:05.724Z,16.80
2023-04-19T09:53:40.951Z,16.80
2023-04-19T09:56:12.888Z,16.90
2023-04-19T09:58:51.608Z,16.90
2023-04-19T10:01:22.929Z,16.90
2023-04-19T10:03:53.832Z,17.00
2023-04-19T10:09:03.739Z,17.00
2023-04-19T10:11:40.153Z,17.10
2023-04-19T10:14:17.647Z,17.20
2023-04-19T10:16:47.675Z,17.30
2023-04-19T10:19:18.561Z,17.40
2023-04-19T10:21:48.782Z,17.50
2023-04-19T10:24:21.485Z,17.50
2023-04-19T10:27:28.436Z,17.60
2023-04-19T10:30:00.822Z,17.70
2023-04-19T10:32:53.786Z,17.80
2023-04-19T10:35:24.310Z,17.90
2023-04-19T10:38:08.595Z,18.00
2023-04-19T10:41:00.815Z,18.10
2023-04-19T10:43:35.226Z,18.20
2023-04-19T10:46:20.910Z,18.40
2023-04-19T10:49:02.787Z,18.50
2023-04-19T10:51:43.167Z,18.70
2023-04-19T10:54:33.235Z,18.90
2023-04-19T10:57:11.429Z,19.20
2023-04-19T10:59:43.928Z,19.50
2023-04-19T11:02:23.118Z,19.70
2023-04-19T11:04:53.447Z,19.90
2023-04-19T11:07:27.355Z,20.20
2023-04-19T11:09:54.388Z,20.40
2023-04-19T11:12:26.662Z,20.70
2023-04-19T11:14:59.683Z,20.90
2023-04-19T11:17:32.460Z,21.10
2023-04-19T11:20:10.775Z,21.40
2023-04-19T11:22:42.546Z,21.60
2023-04-19T11:25:18.977Z,21.90
2023-04-19T11:27:53.511Z,22.20
2023-04-19T11:30:28.335Z,22.40
2023-04-19T11:32:58.497Z,22.70
2023-04-19T11:35:32.603Z,22.90
2023-04-19T11:38:02.143Z,23.10
2023-04-19T11:40:32.672Z,23.30
2023-04-19T11:43:04.970Z,23.50
2023-04-19T11:45:40.095Z,23.70
2023-04-19T11:48:17.329Z,23.90
2023-04-19T11:50:46.606Z,24.00
2023-04-19T11:53:22.987Z,24.30
2023-04-19T11:55:56.321Z,24.30
2023-04-19T11:58:44.432Z,24.40
2023-04-19T12:01:22.088Z,24.50
2023-04-19T12:03:56.409Z,24.60
2023-04-19T12:06:27.679Z,24.80
2023-04-19T12:08:59.605Z,24.90
2023-04-19T12:11:49.963Z,25.10
2023-04-19T12:14:22.719Z,25.20
2023-04-19T12:17:15.768Z,25.40
2023-04-19T12:19:47.630Z,25.50
2023-04-19T12:22:24.156Z,25.70
2023-04-19T12:24:57.534Z,25.80
2023-04-19T12:27:26.795Z,25.80
2023-04-19T12:29:58.140Z,25.90
2023-04-19T12:32:25.165Z,26.00
2023-04-19T12:34:54.297Z,26.10
2023-04-19T12:37:23.433Z,26.10
2023-04-19T12:39:55.964Z,26.20
2023-04-19T12:42:23.525Z,26.20
2023-04-19T12:44:54.904Z,26.30
2023-04-19T12:47:27.054Z,26.30
2023-04-19T12:49:57.700Z,26.40
2023-04-19T12:52:24.526Z,26.40
2023-04-19T12:54:56.498Z,26.40
2023-04-19T12:57:27.789Z,26.40
2023-04-19T12:59:57.159Z,26.40
2023-04-19T13:02:26.768Z,26.50
2023-04-19T13:04:53.718Z,26.50
2023-04-19T13:07:24.988Z,26.60
2023-04-19T13:09:56.924Z,26.60
2023-04-19T13:12:26.529Z,26.60
2023-04-19T13:14:53.492Z,26.60
2023-04-19T13:17:20.874Z,26.70
2023-04-19T13:19:47.972Z,26.70
2023-04-19T13:22:22.882Z,26.70
2023-04-19T13:24:49.741Z,26.70
2023-04-19T13:27:21.240Z,26.50
2023-04-19T13:29:48.106Z,26.50
2023-04-19T13:32:19.773Z,26.40
2023-04-19T13:34:49.058Z,26.30
2023-04-19T13:37:16.078Z,26.10
2023-04-19T13:39:43.025Z,25.90
2023-04-19T13:42:09.876Z,25.90
2023-04-19T13:44:41.291Z,25.80
2023-04-19T13:47:10.165Z,25.70
2023-04-19T13:49:37.012Z,25.70
2023-04-19T13:52:06.325Z,25.80
2023-04-19T13:54:33.173Z,25.80
2023-04-19T13:57:02.857Z,25.80
2023-04-19T13:59:31.986Z,25.80
2023-04-19T14:02:03.369Z,25.90
2023-04-19T14:04:33.619Z,25.90
2023-04-19T14:07:05.985Z,26.00
2023-04-19T14:09:39.485Z,26.00
2023-04-19T14:12:08.754Z,26.10
2023-04-19T14:14:39.929Z,26.20
2023-04-19T14:17:09.323Z,26.20
2023-04-19T14:19:42.924Z,26.20
2023-04-19T14:22:09.819Z,26.20
2023-04-19T14:24:39.194Z,26.10
2023-04-19T14:27:12.807Z,26.00
2023-04-19T14:29:41.784Z,26.00
2023-04-19T14:32:24.957Z,26.00
2023-04-19T14:34:56.995Z,25.90
2023-04-19T14:37:28.947Z,25.80
2023-04-19T14:40:00.381Z,25.80
2023-04-19T14:42:27.225Z,25.70
2023-04-19T14:45:02.355Z,25.60
2023-04-19T14:47:31.802Z,25.50
2023-04-19T14:50:00.767Z,25.30
2023-04-19T14:52:34.599Z,25.10
2023-04-19T14:55:07.992Z,24.80
2023-04-19T14:57:34.944Z,24.50
2023-04-19T15:00:05.190Z,24.30
2023-04-19T15:02:34.330Z,24.10
2023-04-19T15:05:04.587Z,24.00
2023-04-19T15:07:34.289Z,23.80
2023-04-19T15:10:08.554Z,23.70
2023-04-19T15:12:35.448Z,23.50
2023-04-19T15:15:02.309Z,23.40
2023-04-19T15:17:29.241Z,23.30
2023-04-19T15:19:58.470Z,23.10
2023-04-19T15:22:27.846Z,23.00
2023-04-19T15:24:54.680Z,23.00
2023-04-19T15:27:23.919Z,22.80
2023-04-19T15:29:53.036Z,22.70
2023-04-19T15:32:22.391Z,22.50
2023-04-19T15:34:49.434Z,22.30
2023-04-19T15:37:20.981Z,22.10
2023-04-19T15:39:53.396Z,21.90
2023-04-19T15:42:20.254Z,21.60
2023-04-19T15:44:49.119Z,21.40
2023-04-19T15:47:18.179Z,21.20
2023-04-19T15:49:47.187Z,21.10
2023-04-19T15:52:16.806Z,21.00
2023-04-19T15:54:50.340Z,20.80
2023-04-19T15:57:17.401Z,20.60
2023-04-19T15:59:44.332Z,20.40
2023-04-19T16:02:13.668Z,20.20
2023-04-19T16:04:43.247Z,20.10
2023-04-19T16:07:10.152Z,19.90
2023-04-19T16:09:39.040Z,19.80
2023-04-19T16:12:07.931Z,19.50
2023-04-19T16:14:34.927Z,19.40
2023-04-19T16:17:01.978Z,19.30
2023-04-19T16:19:28.875Z,19.20
2023-04-19T16:22:01.908Z,19.10
2023-04-19T16:24:28.954Z,19.00
2023-04-19T16:27:00.818Z,18.90
2023-04-19T16:29:27.971Z,18.80
2023-04-19T16:31:57.365Z,18.80
2023-04-19T16:34:25.391Z,18.70
2023-04-19T16:36:58.112Z,18.60
2023-04-19T16:39:27.181Z,18.60
2023-04-19T16:41:56.003Z,18.50
2023-04-19T16:44:22.864Z,18.40
2023-04-19T16:46:49.689Z,18.30
2023-04-19T16:49:20.058Z,18.30
2023-04-19T16:51:49.423Z,18.20
2023-04-19T16:54:16.250Z,18.00
2023-04-19T16:56:43.171Z,18.00
2023-04-19T16:59:12.188Z,17.90
2023-04-19T17:01:40.123Z,17.80
2023-04-19T17:04:12.003Z,17.70
2023-04-19T17:06:41.724Z,17.60
2023-04-19T17:09:10.632Z,17.50
2023-04-19T17:11:40.112Z,17.40
2023-04-19T17:14:09.506Z,17.40
2023-04-19T17:16:36.444Z,17.30
2023-04-19T17:19:05.594Z,17.30
2023-04-19T17:21:34.772Z,17.20
2023-04-19T17:24:01.595Z,17.20
2023-04-19T17:26:33.060Z,17.10
2023-04-19T17:29:01.756Z,17.00
2023-04-19T17:31:28.942Z,16.90
2023-04-19T17:33:55.836Z,16.90
2023-04-19T17:36:25.113Z,16.80
2023-04-19T17:38:57.041Z,16.70
2023-04-19T17:41:30.816Z,16.60
2023-04-19T17:43:57.724Z,16.50
2023-04-19T17:46:24.533Z,16.40
2023-04-19T17:48:56.177Z,16.40
2023-04-19T17:51:27.756Z,16.40
2023-04-19T17:53:54.687Z,16.30
2023-04-19T17:56:24.141Z,16.20
2023-04-19T17:58:51.184Z,16.20
2023-04-19T18:01:22.526Z,16.10
2023-04-19T18:03:49.591Z,16.10
2023-04-19T18:06:20.716Z,16.00
2023-04-19T18:08:50.662Z,16.00
2023-04-19T18:11:21.657Z,15.90
2023-04-19T18:13:50.630Z,15.90
2023-04-19T18:16:20.395Z,15.80
2023-04-19T18:18:50.005Z,15.70
2023-04-19T18:21:18.463Z,15.60
2023-04-19T18:23:48.035Z,15.60
2023-04-19T18:26:19.495Z,15.50
2023-04-19T18:28:48.836Z,15.50
2023-04-19T18:31:16.015Z,15.40
2023-04-19T18:33:45.398Z,15.30
2023-04-19T18:36:17.051Z,15.30
2023-04-19T18:38:43.885Z,15.30
2023-04-19T18:41:10.776Z,15.10
2023-04-19T18:43:37.598Z,15.10
2023-04-19T18:46:06.820Z,15.00
2023-04-19T18:48:33.660Z,14.90
2023-04-19T18:51:00.465Z,14.90
2023-04-19T18:53:34.761Z,14.80
2023-04-19T18:56:09.401Z,14.70
2023-04-19T18:58:36.622Z,14.60
2023-04-19T19:01:03.516Z,14.60
2023-04-19T19:03:53.928Z,14.50
2023-04-19T19:06:22.173Z,14.40
2023-04-19T19:08:50.137Z,14.30
2023-04-19T19:11:47.182Z,14.20
2023-04-19T19:14:04.336Z,14.20
2023-04-19T19:16:31.575Z,14.10
2023-04-19T19:19:05.640Z,14.10
2023-04-19T19:21:34.750Z,14.00
2023-04-19T19:24:02.793Z,13.90
2023-04-19T19:26:32.489Z,13.90
2023-04-19T19:29:01.639Z,13.80
2023-04-19T19:31:30.544Z,13.80
2023-04-19T19:34:13.806Z,13.70
2023-04-19T19:36:47.043Z,13.60
2023-04-19T19:39:16.368Z,13.50
2023-04-19T19:44:21.487Z,13.40
2023-04-19T19:46:48.379Z,13.40
2023-04-19T19:49:15.387Z,13.30
2023-04-19T19:51:57.675Z,13.30
2023-04-19T19:54:25.794Z,13.20
2023-04-19T19:59:29.146Z,13.10
2023-04-19T20:02:01.724Z,13.10
2023-04-19T20:04:38.626Z,13.00
2023-04-19T20:09:38.642Z,12.90
2023-04-19T20:12:10.585Z,12.90
2023-04-19T20:14:38.378Z,12.80
2023-04-19T20:17:06.597Z,12.80
2023-04-19T20:19:36.070Z,12.80
2023-04-19T20:22:03.224Z,12.70
2023-04-19T20:24:33.563Z,12.70
2023-04-19T20:27:03.159Z,12.60
2023-04-19T20:29:32.173Z,12.60
2023-04-19T20:32:01.270Z,12.50
2023-04-19T20:34:30.835Z,12.50
2023-04-19T20:37:06.796Z,12.40
2023-04-19T20:39:33.701Z,12.40
2023-04-19T20:42:02.860Z,12.30
2023-04-19T20:44:29.645Z,12.30
2023-04-19T20:46:56.712Z,12.30
2023-04-19T20:49:28.128Z,12.20
2023-04-19T20:51:57.470Z,12.20
2023-04-19T20:54:24.419Z,12.10
2023-04-19T20:56:53.998Z,12.00
2023-04-19T20:59:25.776Z,12.00
2023-04-19T21:01:55.268Z,11.90
2023-04-19T21:04:27.354Z,11.90
2023-04-19T21:06:54.549Z,11.90
2023-04-19T21:09:21.454Z,11.80
2023-04-19T21:11:52.862Z,11.80
2023-04-19T21:14:24.253Z,11.80
2023-04-19T21:16:51.179Z,11.70
2023-04-19T21:19:20.731Z,11.70
2023-04-19T21:21:50.155Z,11.60
2023-04-19T21:24:19.211Z,11.60
2023-04-19T21:26:46.234Z,11.60
2023-04-19T21:29:18.004Z,11.60
2023-04-19T21:31:47.628Z,11.50
2023-04-19T21:34:19.382Z,11.40
2023-04-19T21:36:50.455Z,11.40
2023-04-19T21:39:17.528Z,11.40
2023-04-19T21:41:49.352Z,11.30
2023-04-19T21:44:20.847Z,11.30
2023-04-19T21:46:48.539Z,11.30
2023-04-19T21:49:15.783Z,11.20
2023-04-19T21:51:45.322Z,11.20
2023-04-19T21:54:14.150Z,11.20
2023-04-19T21:56:47.337Z,11.10
2023-04-19T21:59:21.337Z,11.00
2023-04-19T22:01:52.529Z,11.10
2023-04-19T22:04:25.194Z,11.00
2023-04-19T22:06:54.489Z,11.00
2023-04-19T22:09:24.874Z,10.90
2023-04-19T22:11:52.829Z,10.90
2023-04-19T22:14:26.681Z,10.80
2023-04-19T22:16:56.548Z,10.80
2023-04-19T22:19:31.502Z,10.70
2023-04-19T22:22:03.184Z,10.70
2023-04-19T22:24:30.213Z,10.70
2023-04-19T22:26:59.201Z,10.60
2023-04-19T22:29:28.337Z,10.60
2023-04-19T22:31:57.882Z,10.50
2023-04-19T22:34:25.118Z,10.50
2023-04-19T22:36:51.966Z,10.50
2023-04-19T22:39:19.116Z,10.50
2023-04-19T22:41:46.060Z,10.40
2023-04-19T22:44:15.184Z,10.40
2023-04-19T22:46:42.010Z,10.40
2023-04-19T22:49:10.018Z,10.30
2023-04-19T22:51:42.250Z,10.30
2023-04-19T22:54:11.704Z,10.30
2023-04-19T22:56:39.410Z,10.30
2023-04-19T22:59:11.688Z,10.20
2023-04-19T23:01:45.631Z,10.20
2023-04-19T23:04:18.490Z,10.20
2023-04-19T23:06:48.650Z,10.10
2023-04-19T23:09:18.117Z,10.10
2023-04-19T23:11:47.729Z,10.10
2023-04-19T23:14:18.403Z,10.00
2023-04-19T23:16:47.423Z,10.00
2023-04-19T23:19:17.172Z,10.00
2023-04-19T23:21:46.387Z,10.00
2023-04-19T23:24:18.094Z,9.90
2023-04-19T23:26:44.960Z,9.90
2023-04-19T23:29:14.397Z,9.80
2023-04-19T23:31:46.811Z,9.80
2023-04-19T23:34:23.127Z,9.80
2023-04-19T23:36:52.522Z,9.70
2023-04-19T23:39:21.591Z,9.70
2023-04-19T23:41:48.525Z,9.70
2023-04-19T23:44:19.968Z,9.60
2023-04-19T23:46:49.122Z,9.60
2023-04-19T23:49:16.277Z,9.60
2023-04-19T23:51:43.480Z,9.60
2023-04-19T23:54:14.877Z,9.60
2023-04-19T23:56:46.807Z,9.50
2023-04-19T23:59:16.130Z,9.50
